Time;durP1;ratioP1;P1;durP2;ratioP2;P2;SDS_P1;SDS_P2;PMS_P1;PMS_P2;Temp;Humidity;BMP_temperature;BMP_pressure;BME280_temperature;BME280_humidity;BME280_pressure;Samples;Min_cycle;Max_cycle;Signal;HPM_P1;HPM_P2
2022/01/14 00:04:06;;;;;;;21.17;9.67;;;4.10;99.90;;;2.17;78.33;101455.28;10392697;27;98367;-78
2022/01/14 00:09:10;;;;;;;17.37;8.77;;;4.00;99.90;;;2.11;79.07;101428.47;10372971;27;96617;-78
2022/01/14 00:19:19;;;;;;;20.30;8.73;;;4.00;99.90;;;2.18;79.61;101415.00;10358913;28;98518;-78
2022/01/14 00:34:46;;;;;;;19.67;9.30;;;4.00;99.90;;;2.03;79.45;101417.53;10372179;28;98679;-77
2022/01/14 00:39:49;;;;;;;14.80;7.50;;;3.90;99.90;;;1.88;78.94;101420.97;10355419;28;98068;-78
2022/01/14 00:44:52;;;;;;;17.23;8.90;;;3.80;99.90;;;1.70;78.84;101428.06;10382540;27;96570;-78
2022/01/14 00:49:56;;;;;;;18.40;8.47;;;3.70;99.90;;;1.55;79.37;101421.81;10349277;28;97799;-78
2022/01/14 00:55:00;;;;;;;18.53;9.20;;;3.50;99.90;;;1.40;79.71;101420.00;10391661;27;96551;-77
2022/01/14 01:00:03;;;;;;;18.20;8.43;;;3.40;99.90;;;1.30;80.64;101406.53;10391963;27;99855;-78
2022/01/14 01:05:06;;;;;;;19.27;9.63;;;3.30;99.90;;;1.19;80.59;101400.16;10337428;28;96557;-78
2022/01/14 01:10:11;;;;;;;20.97;9.37;;;3.20;99.90;;;1.08;80.65;101398.09;10396816;27;98266;-77
2022/01/14 01:15:16;;;;;;;22.50;9.87;;;3.10;99.90;;;1.00;80.98;101406.31;10393320;27;99026;-77
2022/01/14 01:20:20;;;;;;;26.00;11.00;;;3.00;99.90;;;0.96;81.19;101401.31;10396562;27;96682;-77
2022/01/14 01:25:26;;;;;;;20.50;10.10;;;2.90;99.90;;;0.90;80.79;101406.84;10342991;28;98589;-77
2022/01/14 01:35:34;;;;;;;23.13;10.60;;;2.70;99.90;;;0.83;81.85;101400.25;10347409;28;98091;-77
2022/01/14 01:40:37;;;;;;;22.17;10.10;;;2.70;99.90;;;0.80;81.57;101388.16;10403957;27;97483;-78
2022/01/14 01:45:41;;;;;;;23.33;11.27;;;2.70;99.90;;;0.74;81.28;101378.84;10356357;28;98682;-75
2022/01/14 01:50:44;;;;;;;20.67;10.03;;;2.70;99.90;;;0.68;81.53;101381.78;10393063;28;96645;-76
2022/01/14 01:55:47;;;;;;;25.73;11.07;;;2.60;99.90;;;0.63;81.51;101373.31;10364956;28;96804;-78
2022/01/14 02:00:50;;;;;;;26.60;11.63;;;2.50;99.90;;;0.52;81.14;101357.28;10360901;28;96628;-76
2022/01/14 02:05:53;;;;;;;22.67;10.80;;;2.40;99.90;;;0.37;80.83;101364.13;10380374;27;98695;-76
2022/01/14 02:10:56;;;;;;;27.10;11.77;;;2.30;99.90;;;0.23;81.30;101351.69;10377498;28;96757;-75
2022/01/14 02:26:27;;;;;;;29.47;12.10;;;2.00;99.90;;;0.01;82.31;101321.44;10356251;28;96615;-78
2022/01/14 02:31:30;;;;;;;23.03;11.67;;;2.00;99.90;;;-0.05;82.77;101309.53;10349847;28;96569;-76
2022/01/14 02:36:33;;;;;;;23.27;10.63;;;1.90;99.90;;;-0.08;83.06;101312.25;10385364;27;97939;-76
2022/01/14 02:41:39;;;;;;;29.37;12.07;;;1.90;99.90;;;-0.08;83.50;101307.03;10365027;28;96808;-75
2022/01/14 02:46:49;;;;;;;26.17;11.30;;;1.80;99.90;;;-0.07;83.79;101300.88;10379309;27;97415;-78
2022/01/14 02:51:53;;;;;;;29.07;11.23;;;1.80;99.90;;;-0.03;84.18;101295.44;10340534;28;98413;-76
2022/01/14 02:56:58;;;;;;;24.47;11.00;;;1.80;99.90;;;0.02;83.79;101297.00;10357190;28;98278;-77
2022/01/14 03:02:02;;;;;;;24.87;10.93;;;1.90;99.90;;;0.08;84.07;101273.19;10364878;27;96810;-78
2022/01/14 03:07:08;;;;;;;27.50;12.13;;;1.90;99.90;;;0.16;84.14;101260.56;10339308;28;96588;-78
2022/01/14 03:12:11;;;;;;;26.50;11.80;;;2.00;99.90;;;0.24;84.01;101248.84;10371546;27;96628;-75
2022/01/14 03:17:14;;;;;;;23.67;11.03;;;2.10;99.90;;;0.39;84.22;101243.75;10388162;28;97672;-78
2022/01/14 03:22:20;;;;;;;24.83;10.70;;;2.20;99.90;;;0.54;84.28;101237.75;10383142;28;96664;-78
2022/01/14 03:27:24;;;;;;;21.63;9.87;;;2.30;99.90;;;0.69;84.03;101246.56;10355204;28;98350;-78
2022/01/14 03:32:27;;;;;;;22.83;10.70;;;2.50;99.90;;;0.79;83.86;101232.94;10371940;28;98536;-78
2022/01/14 03:37:29;;;;;;;22.73;10.53;;;2.60;99.90;;;0.90;83.55;101244.59;10364374;28;97216;-78
2022/01/14 03:42:33;;;;;;;24.50;9.83;;;2.70;99.90;;;1.04;83.64;101236.88;10380568;28;96629;-78
2022/01/14 03:47:36;;;;;;;23.93;10.07;;;2.80;99.90;;;1.14;82.83;101251.19;10370067;28;96911;-78
2022/01/14 03:52:39;;;;;;;20.77;9.53;;;2.90;99.90;;;1.16;82.73;101254.56;10389502;28;96570;-78
2022/01/14 03:57:42;;;;;;;21.23;10.43;;;3.00;99.90;;;1.10;82.02;101252.25;10382695;28;97823;-78
2022/01/14 04:02:46;;;;;;;22.57;10.10;;;3.00;99.90;;;1.08;83.03;101248.91;10380388;28;96572;-77
2022/01/14 04:07:49;;;;;;;18.17;8.90;;;3.00;99.90;;;1.09;82.85;101219.16;10368852;28;96511;-77
2022/01/14 04:13:05;;;;;;;18.33;9.30;;;3.00;99.90;;;1.11;82.97;101209.44;10388039;28;96611;-76
2022/01/14 04:18:16;;;;;;;17.57;9.10;;;3.00;99.90;;;1.15;83.02;101210.13;10377204;28;97529;-76
2022/01/14 04:23:22;;;;;;;20.87;9.70;;;3.00;99.90;;;1.15;83.09;101202.28;10377484;28;96820;-76
2022/01/14 04:28:34;;;;;;;18.40;9.17;;;3.00;99.90;;;1.15;83.07;101195.28;10366745;28;96923;-76
2022/01/14 04:33:37;;;;;;;16.52;8.50;;;3.10;99.90;;;1.13;83.57;101194.50;10337700;28;96729;-76
2022/01/14 04:38:40;;;;;;;19.20;8.90;;;3.10;99.90;;;1.17;83.76;101177.69;10375254;28;98142;-76
2022/01/14 04:43:43;;;;;;;18.23;8.30;;;3.10;99.90;;;1.42;84.44;101177.19;10380011;28;96970;-76
2022/01/14 04:48:46;;;;;;;17.83;8.00;;;3.20;99.90;;;1.67;83.98;101166.16;10339707;28;98446;-76
2022/01/14 04:53:50;;;;;;;15.43;7.10;;;3.50;99.90;;;1.71;83.38;101159.81;10414535;27;96520;-81
2022/01/14 04:58:54;;;;;;;12.63;6.97;;;3.50;99.90;;;1.68;83.22;101164.38;10351428;28;98279;-78
2022/01/14 05:03:58;;;;;;;18.07;8.43;;;3.60;99.90;;;1.51;82.99;101181.09;10355904;28;97324;-77
2022/01/14 05:09:05;;;;;;;21.87;10.60;;;3.50;99.90;;;1.30;82.52;101160.38;10379395;27;97290;-76
2022/01/14 05:14:08;;;;;;;20.03;8.43;;;3.40;99.90;;;1.20;82.93;101153.97;10374670;28;97901;-77
2022/01/14 05:19:11;;;;;;;20.47;10.07;;;3.30;99.90;;;1.09;83.33;101145.88;10404253;28;96704;-77
2022/01/14 05:24:14;;;;;;;17.93;7.20;;;3.20;99.90;;;1.12;84.81;101134.38;10370710;27;96722;-77
2022/01/14 05:29:17;;;;;;;18.03;9.50;;;3.10;99.90;;;1.33;84.16;101162.84;10388119;27;96587;-77
2022/01/14 05:34:20;;;;;;;18.10;8.53;;;3.30;99.90;;;1.60;85.04;101151.72;10374959;28;96700;-79
2022/01/14 05:39:23;;;;;;;13.73;6.40;;;3.40;99.90;;;1.75;84.64;101139.53;10362852;28;96899;-77
2022/01/14 05:44:31;;;;;;;27.33;14.70;;;3.60;99.90;;;1.77;84.02;101148.16;10391409;27;96632;-77
2022/01/14 05:49:34;;;;;;;32.00;16.63;;;3.70;99.90;;;1.65;83.29;101159.34;10359173;28;97087;-77
2022/01/14 05:54:38;;;;;;;16.97;8.50;;;3.60;99.90;;;1.54;83.77;101157.31;10355901;28;98374;-77
2022/01/14 05:59:41;;;;;;;15.83;7.80;;;3.60;99.90;;;1.52;84.47;101151.34;10377550;28;96430;-77
2022/01/14 06:04:45;;;;;;;17.13;7.13;;;3.50;99.90;;;1.72;85.11;101145.78;10352478;28;96538;-77
2022/01/14 06:09:48;;;;;;;16.13;6.90;;;3.60;99.90;;;2.03;84.29;101157.13;10388032;27;96514;-77
2022/01/14 06:14:50;;;;;;;14.07;7.03;;;3.80;99.90;;;2.13;83.61;101138.13;10411643;27;96700;-77
2022/01/14 06:19:53;;;;;;;16.57;7.60;;;4.00;99.90;;;2.28;82.66;101119.78;10368266;28;98627;-77
2022/01/14 06:24:58;;;;;;;15.40;7.17;;;4.10;99.90;;;2.34;82.29;101114.19;10364240;28;96574;-77
2022/01/14 06:30:04;;;;;;;11.27;6.33;;;4.10;99.90;;;2.45;82.00;101118.78;10373529;28;97512;-77
2022/01/14 06:35:15;;;;;;;14.27;6.73;;;4.20;99.90;;;2.55;81.54;101119.91;10388735;27;96532;-76
2022/01/14 06:40:18;;;;;;;13.17;6.67;;;4.30;99.90;;;2.63;80.96;101133.41;10364251;28;96910;-76
2022/01/14 06:45:24;;;;;;;14.00;5.83;;;4.40;99.90;;;2.66;80.26;101118.31;10368095;28;96577;-77
2022/01/14 06:50:27;;;;;;;14.53;6.63;;;4.40;99.90;;;2.72;80.21;101113.63;10384470;27;96516;-77
2022/01/14 06:55:30;;;;;;;16.80;8.07;;;4.50;99.90;;;2.63;79.89;101125.53;10339466;28;98429;-77
2022/01/14 07:00:34;;;;;;;15.73;7.47;;;4.50;99.90;;;2.85;80.13;101114.53;10385915;28;98628;-77
2022/01/14 07:05:37;;;;;;;13.43;6.10;;;4.50;99.90;;;3.30;79.05;101117.81;10385679;27;96608;-77
2022/01/14 07:10:40;;;;;;;13.63;6.57;;;4.60;99.90;;;3.56;77.19;101106.47;10387294;27;98930;-78
2022/01/14 07:15:43;;;;;;;14.40;6.87;;;4.70;99.90;;;3.73;76.12;101100.94;10346270;28;100410;-76
2022/01/14 07:20:46;;;;;;;10.93;6.00;;;4.90;99.90;;;3.89;75.16;101073.59;10380770;27;96961;-76
2022/01/14 07:25:48;;;;;;;13.13;6.37;;;5.00;99.90;;;4.16;74.40;101086.69;10364647;28;98643;-77
2022/01/14 07:30:51;;;;;;;11.33;5.43;;;5.20;99.90;;;4.41;73.31;101094.56;10363039;28;96502;-77
2022/01/14 07:35:54;;;;;;;11.63;5.60;;;5.40;99.90;;;4.53;71.88;101093.72;10364872;28;96833;-78
2022/01/14 07:40:57;;;;;;;12.90;6.50;;;5.60;99.90;;;4.59;71.97;101096.88;10367840;28;98831;-78
2022/01/14 07:46:00;;;;;;;11.53;6.23;;;5.70;99.90;;;4.93;70.85;101101.44;10361261;28;96656;-78
2022/01/14 07:51:02;;;;;;;10.97;5.27;;;5.90;99.90;;;5.28;69.69;101085.72;10356130;28;98891;-77
2022/01/14 07:56:07;;;;;;;12.63;6.53;;;6.10;99.90;;;5.70;68.41;101069.44;10386270;28;98263;-78
2022/01/14 08:01:10;;;;;;;12.97;7.07;;;6.30;99.90;;;6.09;66.26;101073.53;10372040;27;96767;-78
2022/01/14 08:06:13;;;;;;;11.17;5.80;;;6.60;99.90;;;6.34;64.88;101080.41;10359285;28;99598;-80
2022/01/14 08:11:16;;;;;;;14.73;7.50;;;6.80;99.90;;;6.46;63.70;101070.69;10393160;27;96656;-78
2022/01/14 08:16:20;;;;;;;10.20;5.60;;;7.00;99.90;;;6.61;62.47;101067.69;10354158;28;96883;-78
2022/01/14 08:21:22;;;;;;;9.90;5.73;;;7.20;99.90;;;6.76;61.19;101056.88;10359588;28;96747;-78
2022/01/14 08:26:26;;;;;;;10.10;5.53;;;7.50;98.70;;;6.98;61.49;101046.25;10354795;28;97431;-78
2022/01/14 08:31:28;;;;;;;8.33;4.90;;;7.70;99.90;;;7.27;60.30;101030.69;10373859;28;97188;-77
2022/01/14 08:36:32;;;;;;;8.17;4.90;;;8.00;98.90;;;7.43;58.90;101027.59;10347307;28;96947;-77
2022/01/14 08:41:35;;;;;;;10.03;5.10;;;8.20;96.10;;;7.50;58.27;101020.84;10357602;28;97251;-77
2022/01/14 08:46:38;;;;;;;9.87;4.90;;;8.40;95.20;;;7.59;57.57;101013.94;10372145;28;96752;-77
2022/01/14 08:51:40;;;;;;;8.13;4.13;;;8.50;93.50;;;7.51;57.90;101017.22;10355167;28;98379;-77
2022/01/14 08:56:44;;;;;;;9.03;4.70;;;8.60;92.10;;;7.50;57.37;101015.56;10352463;28;98363;-77
2022/01/14 09:01:47;;;;;;;8.37;4.77;;;8.60;92.30;;;7.48;57.39;101034.16;10358596;28;96558;-77
2022/01/14 09:06:50;;;;;;;8.63;4.37;;;8.60;92.00;;;7.40;57.80;101027.84;10364020;28;97272;-77
2022/01/14 09:11:57;;;;;;;7.97;4.27;;;8.50;91.40;;;6.92;58.72;101020.34;10390542;27;96994;-77
2022/01/14 09:17:00;;;;;;;10.77;5.13;;;8.30;90.90;;;6.37;60.46;101011.53;10355703;28;96572;-77
2022/01/14 09:22:03;;;;;;;10.87;5.67;;;8.00;91.70;;;6.31;61.21;101009.38;10352999;28;97850;-77
2022/01/14 09:27:20;;;;;;;9.17;4.80;;;7.90;92.50;;;6.86;58.85;101000.53;10358641;28;98468;-77
2022/01/14 09:32:24;;;;;;;9.97;4.70;;;8.10;91.30;;;7.29;57.50;100990.88;10391056;27;96539;-77
2022/01/14 09:37:26;;;;;;;7.33;4.37;;;8.40;90.80;;;7.49;55.93;100987.41;10366006;28;96556;-77
2022/01/14 09:42:30;;;;;;;7.97;4.03;;;8.60;89.40;;;7.72;55.52;100999.53;10364886;28;97047;-77
2022/01/14 09:47:33;;;;;;;8.77;4.80;;;8.90;86.90;;;7.90;54.37;100975.13;10387905;27;96668;-78
2022/01/14 09:52:36;;;;;;;8.37;5.10;;;9.10;84.50;;;7.72;54.67;100970.44;10364555;28;100314;-77
2022/01/14 09:57:39;;;;;;;9.03;4.73;;;9.00;84.90;;;7.73;54.58;100953.59;10344239;28;98326;-77
2022/01/14 10:02:43;;;;;;;9.27;4.10;;;9.00;83.70;;;7.30;55.58;100958.19;10381872;27;96756;-77
2022/01/14 10:07:46;;;;;;;9.43;5.10;;;8.60;83.70;;;6.81;56.97;100933.19;10390368;27;97727;-77
2022/01/14 10:12:49;;;;;;;11.30;5.30;;;8.40;84.60;;;6.41;58.08;100944.31;10374267;28;97537;-77
2022/01/14 10:17:59;;;;;;;12.37;5.57;;;8.10;85.60;;;6.17;59.01;100950.56;10357129;28;96632;-77
2022/01/14 10:23:02;;;;;;;9.80;5.53;;;7.90;86.70;;;6.01;59.39;100954.56;10368814;28;96625;-77
2022/01/14 10:28:20;;;;;;;9.13;3.73;;;7.70;87.00;;;5.89;59.81;100946.63;10360314;28;97077;-77
2022/01/14 10:33:28;;;;;;;11.10;4.87;;;7.60;87.90;;;5.84;60.15;100935.59;10370436;27;98329;-77
2022/01/14 10:38:46;;;;;;;12.80;5.67;;;7.50;88.70;;;5.78;60.66;100922.88;10347123;28;96906;-77
2022/01/14 10:43:48;;;;;;;12.07;5.27;;;7.50;89.50;;;5.72;60.98;100896.97;10358129;28;96867;-78
2022/01/14 10:48:54;;;;;;;11.17;5.37;;;7.40;89.80;;;5.67;61.25;100900.94;10372220;28;96614;-78
2022/01/14 10:53:59;;;;;;;11.03;5.17;;;7.40;90.30;;;5.72;61.48;100904.06;10362141;28;98316;-78
2022/01/14 10:59:02;;;;;;;11.17;5.33;;;7.40;90.80;;;6.31;60.27;100907.28;10365209;27;96548;-77
2022/01/14 11:04:14;;;;;;;10.90;5.57;;;7.80;90.90;;;6.87;58.62;100891.25;10382543;27;96563;-78
2022/01/14 11:09:22;;;;;;;13.33;5.00;;;8.30;89.90;;;6.85;58.55;100876.50;10388802;27;96606;-78
2022/01/14 11:14:25;;;;;;;11.33;5.20;;;8.40;88.60;;;7.13;57.70;100869.72;10360858;28;96605;-78
2022/01/14 11:19:28;;;;;;;11.67;5.67;;;8.60;86.80;;;7.22;57.30;100867.16;10377673;27;96762;-78
2022/01/14 11:24:34;;;;;;;8.83;4.67;;;8.70;87.10;;;7.01;57.93;100855.72;10378969;28;97073;-77
2022/01/14 11:29:43;;;;;;;9.63;4.77;;;8.60;86.40;;;6.74;58.76;100837.75;10368379;28;96546;-77
2022/01/14 11:34:48;;;;;;;8.50;4.87;;;8.40;86.90;;;6.55;59.47;100829.69;10367739;28;97044;-78
2022/01/14 11:39:59;;;;;;;9.67;4.43;;;8.30;87.40;;;6.39;59.77;100817.72;10407894;28;96951;-78
2022/01/14 11:45:05;;;;;;;10.88;4.82;;;8.10;87.80;;;6.34;59.84;100830.47;10375497;28;98521;-77
2022/01/14 11:50:28;;;;;;;9.53;4.47;;;8.00;88.10;;;6.28;59.84;100830.13;10409141;27;96553;-78
2022/01/14 11:55:31;;;;;;;9.83;4.87;;;8.00;88.90;;;6.28;59.61;100823.03;10375959;28;96702;-78
2022/01/14 12:00:41;;;;;;;8.17;4.17;;;7.90;88.00;;;6.32;59.41;100824.47;10380125;28;96504;-78
2022/01/14 12:05:54;;;;;;;9.53;4.60;;;8.00;87.50;;;6.39;58.77;100816.91;10364078;28;96525;-78
2022/01/14 12:11:06;;;;;;;7.43;4.13;;;8.00;87.40;;;6.52;58.82;100798.25;10416879;27;96683;-78
2022/01/14 12:21:40;;;;;;;8.30;4.10;;;8.20;86.10;;;6.64;58.24;100800.69;10393966;27;97877;-77
2022/01/14 12:27:03;;;;;;;9.43;4.30;;;8.30;86.10;;;6.65;58.38;100812.94;10364129;28;96841;-76
2022/01/14 12:32:21;;;;;;;8.30;4.03;;;8.30;85.90;;;6.63;58.43;100820.16;10397678;27;99072;-77
2022/01/14 12:37:33;;;;;;;10.80;5.07;;;8.30;85.80;;;6.60;58.40;100830.97;10384852;27;96758;-77
2022/01/14 12:42:38;;;;;;;8.57;3.93;;;8.20;85.80;;;6.57;58.66;100819.81;10368380;27;98862;-77
2022/01/14 12:47:42;;;;;;;8.43;3.83;;;8.20;85.90;;;6.57;58.66;100815.38;10367220;28;98934;-77
2022/01/14 12:52:50;;;;;;;13.37;6.00;;;8.20;86.20;;;6.58;58.75;100813.56;10400096;27;98037;-77
2022/01/14 12:57:57;;;;;;;8.27;4.20;;;8.30;86.20;;;6.57;58.92;100825.09;10366180;28;96627;-78
2022/01/14 13:03:00;;;;;;;9.90;4.13;;;8.20;86.20;;;6.55;58.96;100811.19;10403323;27;97485;-78
2022/01/14 13:08:04;;;;;;;7.87;4.40;;;8.20;86.20;;;6.52;59.32;100807.00;10365212;28;96716;-79
2022/01/14 13:13:08;;;;;;;7.83;4.23;;;8.20;86.60;;;6.50;59.34;100803.66;10373562;27;96596;-79
2022/01/14 13:18:20;;;;;;;7.80;4.17;;;8.20;86.90;;;6.52;59.46;100817.56;10371418;28;98424;-79
2022/01/14 13:23:25;;;;;;;7.47;4.03;;;8.20;86.90;;;6.54;59.44;100806.88;10371438;28;96666;-79
2022/01/14 13:28:28;;;;;;;8.80;4.27;;;8.20;86.90;;;6.54;59.57;100785.75;10363476;28;100583;-81
2022/01/14 13:33:31;;;;;;;10.17;5.13;;;8.30;86.90;;;6.57;58.93;100788.13;10363551;28;97083;-79
2022/01/14 13:38:34;;;;;;;9.40;4.40;;;8.30;86.80;;;6.57;59.36;100798.69;10362114;28;96673;-78
2022/01/14 13:43:39;;;;;;;10.10;4.80;;;8.30;86.80;;;6.52;59.33;100807.00;10402446;27;96678;-78
2022/01/14 13:48:50;;;;;;;9.70;4.53;;;8.30;86.80;;;6.48;59.58;100799.44;10356357;28;97396;-79
2022/01/14 13:53:55;;;;;;;10.13;6.18;;;8.20;86.80;;;6.39;59.67;100785.22;10363330;28;97687;-78
2022/01/14 13:59:00;;;;;;;10.00;4.80;;;8.10;87.00;;;6.28;60.26;100782.63;10368601;28;98335;-78
2022/01/14 14:04:10;;;;;;;9.50;4.47;;;8.10;87.30;;;6.20;60.30;100793.81;10361385;28;96548;-79
2022/01/14 14:09:31;;;;;;;9.10;4.77;;;7.90;87.60;;;6.13;60.82;100790.84;10359423;28;96597;-79
2022/01/14 14:19:58;;;;;;;9.10;4.13;;;7.80;88.70;;;6.03;61.39;100802.25;10349513;28;96722;-78
2022/01/14 14:25:22;;;;;;;8.10;5.00;;;7.80;89.20;;;5.90;61.72;100805.84;10352185;28;96755;-79
2022/01/14 14:30:32;;;;;;;8.63;4.67;;;7.70;89.80;;;5.78;62.58;100801.56;10356740;28;96568;-78
2022/01/14 14:35:37;;;;;;;11.00;5.10;;;7.60;90.10;;;5.72;62.46;100802.03;10326575;28;97895;-78
2022/01/14 14:40:41;;;;;;;11.63;6.00;;;7.50;90.30;;;5.61;62.63;100799.41;10344761;28;96770;-79
2022/01/14 14:45:44;;;;;;;9.80;4.40;;;7.40;90.50;;;5.49;63.28;100787.19;10331579;28;97494;-82
2022/01/14 14:50:47;;;;;;;7.93;4.03;;;7.30;90.70;;;5.37;63.56;100789.00;10350783;28;97672;-78
2022/01/14 14:55:50;;;;;;;14.93;7.17;;;7.20;91.20;;;5.31;64.37;100782.41;10369161;28;97142;-78
2022/01/14 15:00:53;;;;;;;8.40;4.60;;;7.10;91.50;;;5.28;64.40;100784.47;10353437;28;98415;-77
2022/01/14 15:05:56;;;;;;;9.77;5.07;;;7.10;91.70;;;5.23;65.01;100789.25;10358908;28;96906;-77
2022/01/14 15:11:00;;;;;;;18.13;8.90;;;7.00;92.20;;;5.15;65.54;100781.06;10370164;27;97668;-77
2022/01/14 15:16:26;;;;;;;10.03;4.97;;;6.90;92.40;;;5.13;65.85;100789.09;10413233;27;98243;-77
2022/01/14 15:21:29;;;;;;;8.90;4.67;;;6.90;93.00;;;5.07;66.18;100782.50;10408477;27;96600;-78
2022/01/14 15:26:32;;;;;;;9.17;4.57;;;6.80;93.20;;;4.97;66.48;100775.44;10381537;27;97606;-78
2022/01/14 15:31:35;;;;;;;10.80;5.77;;;6.80;93.50;;;4.87;67.00;100766.56;10378676;27;97493;-76
2022/01/14 15:36:39;;;;;;;11.07;5.83;;;6.70;93.80;;;4.81;67.54;100762.63;10379754;27;98246;-78
2022/01/14 15:41:44;;;;;;;12.50;5.33;;;6.60;94.50;;;4.74;67.83;100761.41;10421377;27;96698;-77
2022/01/14 15:46:47;;;;;;;26.20;10.83;;;6.60;94.80;;;4.69;68.27;100743.31;10400725;27;96617;-76
2022/01/14 15:52:10;;;;;;;32.40;15.83;;;6.50;95.40;;;4.64;68.60;100744.63;10399271;27;98912;-77
2022/01/14 15:57:13;;;;;;;17.17;9.23;;;6.40;95.70;;;4.57;68.90;100754.78;10400300;27;96587;-77
2022/01/14 16:02:16;;;;;;;12.53;5.63;;;6.40;95.90;;;4.53;68.86;100748.91;10417401;27;98903;-77
2022/01/14 16:07:21;;;;;;;14.27;6.47;;;6.30;96.50;;;4.49;69.26;100744.81;10424257;27;97164;-78
2022/01/14 16:12:24;;;;;;;11.60;5.97;;;6.30;96.80;;;4.44;69.82;100728.56;10393433;28;96590;-78
2022/01/14 16:17:27;;;;;;;14.23;6.70;;;6.30;97.20;;;4.52;69.88;100730.59;10383306;28;97263;-79
2022/01/14 16:22:30;;;;;;;21.73;8.47;;;6.30;97.70;;;4.54;69.85;100723.41;10384795;27;96702;-78
2022/01/14 16:27:33;;;;;;;10.80;5.73;;;6.30;98.20;;;4.55;69.48;100741.72;10410010;27;98275;-80
2022/01/14 16:32:37;;;;;;;13.33;5.17;;;6.30;98.20;;;4.56;69.50;100743.41;10401921;27;97441;-79
2022/01/14 16:37:40;;;;;;;29.13;12.03;;;6.30;98.50;;;4.67;69.26;100755.75;10400365;27;98109;-79
2022/01/14 16:42:44;;;;;;;18.17;9.70;;;6.40;98.30;;;4.76;68.60;100762.97;10419146;27;96703;-76
2022/01/14 16:47:49;;;;;;;10.87;5.10;;;6.50;98.00;;;4.87;68.01;100756.88;10400554;27;97165;-77
2022/01/14 16:52:52;;;;;;;12.63;5.00;;;6.60;97.70;;;4.90;67.67;100751.38;10383603;27;97025;-77
2022/01/14 16:57:55;;;;;;;9.40;4.43;;;6.60;97.30;;;4.89;67.58;100748.84;10399994;28;96918;-77
2022/01/14 17:02:57;;;;;;;12.67;6.20;;;6.60;97.10;;;4.87;67.47;100741.06;10405628;27;98153;-76
2022/01/14 17:08:00;;;;;;;7.67;4.30;;;6.60;97.00;;;4.83;67.27;100739.63;10392006;27;96931;-76
2022/01/14 17:13:04;;;;;;;11.80;5.23;;;6.60;96.90;;;4.74;67.30;100749.09;10409093;27;98717;-75
2022/01/14 17:18:07;;;;;;;9.23;4.47;;;6.50;96.80;;;4.63;67.80;100746.41;10390743;27;98692;-75
2022/01/14 17:23:11;;;;;;;13.47;6.07;;;6.50;96.80;;;4.65;67.70;100755.03;10384630;27;96930;-76
2022/01/14 17:28:14;;;;;;;14.03;6.80;;;6.40;96.90;;;4.70;67.27;100758.16;10425161;27;97606;-75
2022/01/14 17:33:17;;;;;;;17.90;8.73;;;6.50;96.70;;;4.69;67.16;100760.91;10397693;27;96669;-75
2022/01/14 17:38:19;;;;;;;8.37;4.53;;;6.50;96.60;;;4.63;66.77;100770.13;10410013;28;96644;-75
2022/01/14 17:43:27;;;;;;;48.77;19.70;;;6.40;96.30;;;4.59;66.76;100766.03;10397616;28;98381;-75
2022/01/14 17:48:30;;;;;;;24.23;9.33;;;6.40;96.20;;;4.51;66.91;100777.13;10397137;27;98428;-75
2022/01/14 17:53:33;;;;;;;36.00;18.00;;;6.30;96.20;;;4.43;67.07;100790.00;10402487;27;96572;-75
2022/01/14 17:58:37;;;;;;;24.03;10.87;;;6.30;96.10;;;4.37;66.99;100784.38;10407194;27;96555;-76
2022/01/14 18:03:40;;;;;;;22.90;9.10;;;6.20;96.10;;;4.28;67.16;100786.72;10396476;27;97632;-76
2022/01/14 18:08:44;;;;;;;11.50;6.50;;;6.10;96.10;;;4.24;67.47;100781.81;10401998;27;98339;-76
2022/01/14 18:14:00;;;;;;;16.37;8.47;;;6.10;96.20;;;4.14;67.09;100794.81;10396258;27;98282;-76
2022/01/14 18:19:03;;;;;;;16.03;7.73;;;6.10;96.20;;;4.07;67.68;100790.09;10372493;27;98790;-75
2022/01/14 18:24:06;;;;;;;21.33;12.17;;;6.00;96.20;;;3.95;67.58;100790.03;10375663;28;96657;-76
2022/01/14 18:29:10;;;;;;;23.07;10.23;;;5.90;96.30;;;3.86;68.00;100795.13;10388894;27;96659;-77
2022/01/14 18:34:13;;;;;;;14.13;6.47;;;5.80;96.40;;;3.83;67.94;100790.91;10392765;27;98803;-77
2022/01/14 18:39:16;;;;;;;13.77;5.27;;;5.70;96.50;;;3.78;67.97;100789.56;10379013;27;98423;-77
2022/01/14 18:44:19;;;;;;;12.03;5.10;;;5.70;96.50;;;3.70;68.50;100796.19;10406356;27;96622;-77
2022/01/14 18:49:22;;;;;;;12.47;5.80;;;5.60;96.60;;;3.64;69.15;100785.28;10406868;27;96637;-77
2022/01/14 18:54:26;;;;;;;14.27;6.30;;;5.50;96.70;;;3.63;68.89;100778.34;10385772;27;96765;-76
2022/01/14 18:59:29;;;;;;;21.23;9.43;;;5.50;97.10;;;3.65;68.59;100768.56;10394052;27;98432;-77
2022/01/14 19:04:34;;;;;;;9.60;5.37;;;5.50;97.10;;;3.68;68.63;100773.63;10415553;27;96429;-77
2022/01/14 19:09:37;;;;;;;12.13;5.47;;;5.50;97.30;;;3.65;69.05;100776.44;10407418;27;96660;-77
2022/01/14 19:14:42;;;;;;;20.07;9.33;;;5.50;97.30;;;3.64;69.02;100785.28;10413558;28;96533;-77
2022/01/14 19:19:45;;;;;;;15.03;6.63;;;5.50;97.50;;;3.55;69.25;100778.91;10391421;27;96600;-77
2022/01/14 19:24:48;;;;;;;12.53;6.13;;;5.40;97.70;;;3.44;69.95;100781.44;10382599;28;96566;-77
2022/01/14 19:29:51;;;;;;;15.87;6.33;;;5.30;98.10;;;3.39;70.35;100783.56;10427430;27;96432;-77
2022/01/14 19:34:57;;;;;;;12.87;6.00;;;5.30;98.60;;;3.31;70.39;100778.84;10418466;27;96586;-77
2022/01/14 19:39:59;;;;;;;11.77;6.03;;;5.20;98.50;;;3.25;70.94;100784.53;10380761;27;97031;-76
2022/01/14 19:45:03;;;;;;;11.37;5.73;;;5.10;98.80;;;3.19;71.09;100803.34;10385209;27;96769;-76
2022/01/14 19:50:09;;;;;;;12.73;5.37;;;5.10;99.20;;;3.11;71.45;100808.25;10425531;27;98584;-76
2022/01/14 19:55:14;;;;;;;11.87;5.60;;;5.10;99.10;;;2.96;71.72;100804.91;10392455;27;98614;-76
2022/01/14 20:00:17;;;;;;;13.13;5.60;;;4.90;99.60;;;2.88;72.53;100807.22;10378600;27;96668;-75
2022/01/14 20:05:21;;;;;;;11.27;5.70;;;4.80;99.90;;;2.89;72.90;100804.50;10420119;27;97171;-76
2022/01/14 20:10:26;;;;;;;13.13;6.73;;;4.80;99.90;;;2.92;73.04;100816.56;10392692;27;98642;-76
2022/01/14 20:15:29;;;;;;;12.80;6.27;;;4.80;99.90;;;2.90;72.96;100831.56;10399275;28;96524;-76
2022/01/14 20:20:32;;;;;;;11.20;5.83;;;4.80;99.90;;;2.82;73.14;100826.84;10383092;28;97464;-76
2022/01/14 20:25:35;;;;;;;18.37;7.20;;;4.70;99.90;;;2.70;73.49;100811.94;10374138;27;96695;-76
2022/01/14 20:30:39;;;;;;;18.23;7.73;;;4.60;99.90;;;2.68;74.40;100826.91;10406988;27;97293;-76
2022/01/14 20:35:43;;;;;;;14.20;6.90;;;4.60;99.90;;;2.61;74.21;100823.03;10387205;28;96971;-76
2022/01/14 20:40:46;;;;;;;14.90;7.63;;;4.50;99.90;;;2.58;75.01;100818.81;10417531;28;96723;-75
2022/01/14 20:45:49;;;;;;;16.63;7.17;;;4.50;99.90;;;2.55;75.35;100820.81;10385324;27;98547;-76
2022/01/14 20:50:52;;;;;;;13.53;7.07;;;4.40;99.90;;;2.52;75.16;100815.75;10400410;27;99025;-75
2022/01/14 20:55:55;;;;;;;13.53;7.17;;;4.40;99.90;;;2.48;75.94;100837.91;10403300;27;96584;-75
2022/01/14 21:00:58;;;;;;;15.50;8.00;;;4.40;99.90;;;2.45;75.46;100835.47;10388032;27;96696;-75
2022/01/14 21:06:01;;;;;;;19.07;8.13;;;4.40;99.90;;;2.36;75.80;100858.72;10394388;27;96484;-78
2022/01/14 21:11:04;;;;;;;23.23;11.77;;;4.30;99.90;;;2.25;75.71;100855.94;10396428;27;97159;-77
2022/01/14 21:16:09;;;;;;;36.27;15.10;;;4.20;99.90;;;2.15;77.19;100865.34;10388857;28;97082;-77
2022/01/14 21:21:12;;;;;;;23.47;11.33;;;4.10;99.90;;;2.07;77.51;100851.88;10411234;27;96680;-76
2022/01/14 21:26:16;;;;;;;16.87;8.50;;;4.10;99.90;;;2.05;78.19;100856.41;10386480;28;97873;-77
2022/01/14 21:31:19;;;;;;;17.50;8.80;;;4.00;99.90;;;2.08;78.63;100853.56;10427688;27;97116;-78
2022/01/14 21:36:24;;;;;;;17.30;8.53;;;4.00;99.90;;;2.04;79.18;100862.56;10397398;28;96625;-77
2022/01/14 21:41:26;;;;;;;19.00;8.43;;;3.90;99.90;;;2.06;79.75;100879.88;10388590;28;96614;-77
2022/01/14 21:46:29;;;;;;;17.27;9.57;;;3.90;99.90;;;2.08;79.93;100875.38;10409409;27;96650;-77
2022/01/14 21:51:34;;;;;;;18.17;8.40;;;3.90;99.90;;;2.06;79.63;100879.03;10411800;27;96611;-77